Coahoma, Texas
Current Conditions -  °F | °C
As of 5:15 AM on Tuesday 21 Oct 2014 (Local Time) from KBPG Reporting Station
Clear Clear  
Wind Chill: 59°   Ceiling: Unl
Heat Index: 59°   Visibility: 10mi
Dew Point: 53°   Wind: 5mph
Humidity: 81%   Direction: 130°SE
Pressure: 30.1"   Gusts: NA
Location:  32.3°N, 101.31°W
Report Text: KBPG 211015Z AUTO 13004KT 10SM CLR 15/12 A3010 RMK AO2 LTG DSNT SW T01480115
Loading
Personal Weather Stations






























Interactive Weather Map
Tropical Storm Tracking
New forecast layout! Learn more

10-Day Weather Forecast

Advertisements
Track Severe Weather on mobile